Time,TemperatureF,DewpointF,PressureIn,WindDirection,WindDirectionDegrees,WindSpeedMPH,WindSpeedGustMPH,Humidity,HourlyPrecipIn,Conditions,Clouds,dailyrainin,SoftwareType,DateUTC
2013-01-20 00:04:00,38.0,30.0,30.21,SW,225,0.0,2.0,74,0.00,,,0.00,,2013-01-20 05:04:00,
2013-01-20 00:12:00,38.0,30.0,30.21,SW,225,0.0,2.0,74,0.00,,,0.00,,2013-01-20 05:12:00,
2013-01-20 00:23:00,38.0,30.0,30.20,SW,225,0.0,2.0,74,0.00,,,0.00,,2013-01-20 05:23:00,
2013-01-20 00:33:00,38.0,30.0,30.20,SW,225,0.0,1.0,73,0.00,,,0.00,,2013-01-20 05:33:00,
2013-01-20 00:43:00,38.0,30.0,30.20,SW,225,0.0,1.0,73,0.00,,,0.00,,2013-01-20 05:43:00,
2013-01-20 00:53:00,37.0,29.0,30.20,SW,225,0.0,0.0,74,0.00,,,0.00,,2013-01-20 05:53:00,
2013-01-20 01:02:00,37.0,30.0,30.19,SW,225,0.0,0.0,76,0.00,,,0.00,,2013-01-20 06:02:00,
2013-01-20 01:12:00,37.0,30.0,30.19,SW,225,0.0,0.0,76,0.00,,,0.00,,2013-01-20 06:12:00,
2013-01-20 01:22:00,36.0,29.0,30.19,SW,225,0.0,0.0,76,0.00,,,0.00,,2013-01-20 06:22:00,
2013-01-20 01:33:00,36.0,30.0,30.18,SW,225,0.0,1.0,78,0.00,,,0.00,,2013-01-20 06:33:00,
2013-01-20 01:43:00,36.0,30.0,30.18,SW,225,0.0,1.0,78,0.00,,,0.00,,2013-01-20 06:43:00,
2013-01-20 01:53:00,35.0,30.0,30.18,SW,225,0.0,1.0,81,0.00,,,0.00,,2013-01-20 06:53:00,
2013-01-20 02:02:00,35.0,29.0,30.17,SW,225,0.0,0.0,80,0.00,,,0.00,,2013-01-20 07:02:00,
2013-01-20 02:12:00,35.0,29.0,30.17,SW,225,0.0,0.0,80,0.00,,,0.00,,2013-01-20 07:12:00,
2013-01-20 02:22:00,34.0,29.0,30.17,SW,225,0.0,0.0,83,0.00,,,0.00,,2013-01-20 07:22:00,
2013-01-20 02:32:00,36.0,31.0,30.17,SW,225,0.0,2.0,81,0.00,,,0.00,,2013-01-20 07:32:00,
2013-01-20 02:42:00,36.0,31.0,30.17,SW,225,0.0,2.0,81,0.00,,,0.00,,2013-01-20 07:42:00,
2013-01-20 02:52:00,37.0,31.0,30.17,North,360,1.0,3.0,78,0.00,,,0.00,,2013-01-20 07:52:00,
2013-01-20 03:02:00,37.0,30.0,30.17,North,360,1.0,2.0,75,0.00,,,0.00,,2013-01-20 08:02:00,
2013-01-20 03:12:00,37.0,30.0,30.17,North,360,1.0,2.0,75,0.00,,,0.00,,2013-01-20 08:12:00,
2013-01-20 03:22:00,38.0,30.0,30.16,North,360,0.0,1.0,73,0.00,,,0.00,,2013-01-20 08:22:00,
2013-01-20 03:32:00,37.0,30.0,30.16,North,360,0.0,2.0,75,0.00,,,0.00,,2013-01-20 08:32:00,
2013-01-20 03:42:00,37.0,30.0,30.16,North,360,0.0,2.0,75,0.00,,,0.00,,2013-01-20 08:42:00,
2013-01-20 03:53:00,37.0,30.0,30.16,North,360,0.0,0.0,76,0.00,,,0.00,,2013-01-20 08:53:00,
2013-01-20 04:02:00,37.0,30.0,30.16,North,360,0.0,0.0,75,0.00,,,0.00,,2013-01-20 09:02:00,
2013-01-20 04:12:00,37.0,30.0,30.16,North,360,0.0,0.0,75,0.00,,,0.00,,2013-01-20 09:12:00,
2013-01-20 04:22:00,37.0,30.0,30.16,North,360,0.0,0.0,76,0.00,,,0.00,,2013-01-20 09:22:00,
2013-01-20 04:33:00,36.0,29.0,30.15,North,360,0.0,0.0,77,0.00,,,0.00,,2013-01-20 09:33:00,
2013-01-20 04:42:00,36.0,29.0,30.15,North,360,0.0,0.0,77,0.00,,,0.00,,2013-01-20 09:42:00,
2013-01-20 04:53:00,36.0,29.0,30.15,North,360,0.0,0.0,77,0.00,,,0.00,,2013-01-20 09:53:00,
2013-01-20 05:02:00,36.0,29.0,30.14,North,360,0.0,0.0,77,0.00,,,0.00,,2013-01-20 10:02:00,
2013-01-20 05:12:00,36.0,29.0,30.14,North,360,0.0,0.0,77,0.00,,,0.00,,2013-01-20 10:12:00,
2013-01-20 05:23:00,36.0,29.0,30.14,North,360,0.0,0.0,77,0.00,,,0.00,,2013-01-20 10:23:00,
2013-01-20 05:32:00,35.0,29.0,30.14,North,360,0.0,0.0,80,0.00,,,0.00,,2013-01-20 10:32:00,
2013-01-20 05:42:00,35.0,29.0,30.14,North,360,0.0,0.0,80,0.00,,,0.00,,2013-01-20 10:42:00,
2013-01-20 05:53:00,34.0,29.0,30.13,North,360,0.0,0.0,82,0.00,,,0.00,,2013-01-20 10:53:00,
2013-01-20 06:03:00,35.0,30.0,30.14,North,360,0.0,0.0,82,0.00,,,0.00,,2013-01-20 11:03:00,
2013-01-20 06:12:00,35.0,30.0,30.14,North,360,0.0,0.0,82,0.00,,,0.00,,2013-01-20 11:12:00,
2013-01-20 06:22:00,35.0,29.0,30.14,North,360,0.0,0.0,80,0.00,,,0.00,,2013-01-20 11:22:00,
2013-01-20 06:33:00,35.0,30.0,30.14,North,360,0.0,0.0,82,0.00,,,0.00,,2013-01-20 11:33:00,
2013-01-20 06:43:00,35.0,30.0,30.14,North,360,0.0,0.0,82,0.00,,,0.00,,2013-01-20 11:43:00,
2013-01-20 06:54:00,35.0,30.0,30.14,North,360,0.0,0.0,82,0.00,,,0.00,,2013-01-20 11:54:00,
2013-01-20 07:03:00,35.0,30.0,30.14,North,360,0.0,1.0,81,0.00,,,0.00,,2013-01-20 12:03:00,
2013-01-20 07:12:00,35.0,30.0,30.14,North,360,0.0,1.0,81,0.00,,,0.00,,2013-01-20 12:12:00,
2013-01-20 07:23:00,35.0,30.0,30.14,North,360,0.0,1.0,81,0.00,,,0.00,,2013-01-20 12:23:00,
2013-01-20 07:33:00,35.0,30.0,30.14,North,360,0.0,1.0,81,0.00,,,0.00,,2013-01-20 12:33:00,
2013-01-20 07:43:00,35.0,30.0,30.14,North,360,0.0,1.0,81,0.00,,,0.00,,2013-01-20 12:43:00,
2013-01-20 07:53:00,34.0,29.0,30.14,North,360,0.0,0.0,82,0.00,,,0.00,,2013-01-20 12:53:00,
2013-01-20 08:03:00,35.0,30.0,30.14,North,360,0.0,0.0,82,0.00,,,0.00,,2013-01-20 13:03:00,
2013-01-20 08:12:00,35.0,30.0,30.14,North,360,0.0,0.0,82,0.00,,,0.00,,2013-01-20 13:12:00,
2013-01-20 08:23:00,34.0,30.0,30.15,North,360,0.0,0.0,84,0.00,,,0.00,,2013-01-20 13:23:00,
2013-01-20 08:33:00,36.0,31.0,30.15,North,360,0.0,0.0,82,0.00,,,0.00,,2013-01-20 13:33:00,
2013-01-20 08:43:00,36.0,31.0,30.15,North,360,0.0,0.0,82,0.00,,,0.00,,2013-01-20 13:43:00,
2013-01-20 08:53:00,38.0,32.0,30.15,North,360,0.0,0.0,78,0.00,,,0.00,,2013-01-20 13:53:00,
2013-01-20 09:02:00,42.0,33.0,30.15,North,355,1.0,2.0,70,0.00,,,0.00,,2013-01-20 14:02:00,
2013-01-20 09:12:00,42.0,33.0,30.15,North,355,1.0,2.0,70,0.00,,,0.00,,2013-01-20 14:12:00,
2013-01-20 09:23:00,43.0,33.0,30.16,NNW,346,1.0,2.0,68,0.00,,,0.00,,2013-01-20 14:23:00,
2013-01-20 09:33:00,45.0,32.0,30.15,NW,309,1.0,3.0,61,0.00,,,0.00,,2013-01-20 14:33:00,
2013-01-20 09:43:00,45.0,32.0,30.15,NW,309,1.0,3.0,61,0.00,,,0.00,,2013-01-20 14:43:00,
2013-01-20 09:53:00,46.0,33.0,30.15,West,265,0.0,4.0,60,0.00,,,0.00,,2013-01-20 14:53:00,
2013-01-20 10:03:00,47.0,33.0,30.16,NW,310,2.0,4.0,59,0.00,,,0.00,,2013-01-20 15:03:00,
2013-01-20 10:12:00,47.0,33.0,30.16,NW,310,2.0,4.0,59,0.00,,,0.00,,2013-01-20 15:12:00,
2013-01-20 10:23:00,49.0,33.0,30.16,NNW,348,0.0,4.0,54,0.00,,,0.00,,2013-01-20 15:23:00,
2013-01-20 10:33:00,50.0,33.0,30.16,North,360,1.0,3.0,52,0.00,,,0.00,,2013-01-20 15:33:00,
2013-01-20 10:43:00,50.0,33.0,30.16,North,360,1.0,3.0,52,0.00,,,0.00,,2013-01-20 15:43:00,
2013-01-20 10:53:00,51.0,33.0,30.16,SW,219,2.0,4.0,50,0.00,,,0.00,,2013-01-20 15:53:00,
2013-01-20 11:03:00,52.0,35.0,30.16,SW,232,1.0,6.0,52,0.00,,,0.00,,2013-01-20 16:03:00,
2013-01-20 11:12:00,52.0,35.0,30.16,SW,232,1.0,6.0,52,0.00,,,0.00,,2013-01-20 16:12:00,
2013-01-20 11:23:00,54.0,35.0,30.16,NNW,346,1.0,3.0,48,0.00,,,0.00,,2013-01-20 16:23:00,
2013-01-20 11:33:00,56.0,34.0,30.15,West,278,2.0,5.0,43,0.00,,,0.00,,2013-01-20 16:33:00,
2013-01-20 11:43:00,56.0,34.0,30.15,West,278,2.0,5.0,43,0.00,,,0.00,,2013-01-20 16:43:00,
2013-01-20 11:53:00,57.0,36.0,30.14,WNW,296,1.0,3.0,46,0.00,,,0.00,,2013-01-20 16:53:00,
2013-01-20 12:03:00,58.0,36.0,30.14,WSW,246,1.0,5.0,44,0.00,,,0.00,,2013-01-20 17:03:00,
2013-01-20 12:13:00,58.0,36.0,30.14,WSW,246,1.0,5.0,44,0.00,,,0.00,,2013-01-20 17:13:00,
2013-01-20 12:22:00,57.0,34.0,30.12,South,184,2.0,6.0,42,0.00,,,0.00,,2013-01-20 17:22:00,
2013-01-20 12:33:00,58.0,35.0,30.11,WNW,296,0.0,7.0,42,0.00,,,0.00,,2013-01-20 17:33:00,
2013-01-20 12:42:00,58.0,35.0,30.11,WNW,296,0.0,7.0,42,0.00,,,0.00,,2013-01-20 17:42:00,
2013-01-20 12:53:00,61.0,38.0,30.10,West,265,2.0,5.0,42,0.00,,,0.00,,2013-01-20 17:53:00,
2013-01-20 13:03:00,61.0,36.0,30.09,SW,228,2.0,6.0,40,0.00,,,0.00,,2013-01-20 18:03:00,
2013-01-20 13:13:00,61.0,36.0,30.09,SW,228,2.0,6.0,40,0.00,,,0.00,,2013-01-20 18:13:00,
2013-01-20 13:23:00,61.0,36.0,30.09,SW,228,2.0,6.0,40,0.00,,,0.00,,2013-01-20 18:23:00,
2013-01-20 13:33:00,62.0,37.0,30.08,SSW,210,3.0,7.0,40,0.00,,,0.00,,2013-01-20 18:33:00,
2013-01-20 13:43:00,62.0,37.0,30.08,SSW,210,3.0,7.0,40,0.00,,,0.00,,2013-01-20 18:43:00,
2013-01-20 13:53:00,63.0,37.0,30.07,South,184,3.0,6.0,38,0.00,,,0.00,,2013-01-20 18:53:00,
2013-01-20 14:03:00,62.0,37.0,30.06,SW,215,3.0,6.0,39,0.00,,,0.00,,2013-01-20 19:03:00,
2013-01-20 14:12:00,62.0,37.0,30.06,SW,215,3.0,6.0,39,0.00,,,0.00,,2013-01-20 19:12:00,
2013-01-20 14:23:00,63.0,38.0,30.06,West,270,3.0,7.0,39,0.00,,,0.00,,2013-01-20 19:23:00,
2013-01-20 14:33:00,65.0,37.0,30.05,NW,311,1.0,7.0,36,0.00,,,0.00,,2013-01-20 19:33:00,
2013-01-20 14:43:00,65.0,37.0,30.05,NW,311,1.0,7.0,36,0.00,,,0.00,,2013-01-20 19:43:00,
2013-01-20 14:53:00,66.0,38.0,30.05,WSW,254,3.0,8.0,36,0.00,,,0.00,,2013-01-20 19:53:00,
2013-01-20 15:03:00,65.0,37.0,30.04,NNE,16,2.0,7.0,36,0.00,,,0.00,,2013-01-20 20:03:00,
2013-01-20 15:12:00,65.0,37.0,30.04,NNE,16,2.0,7.0,36,0.00,,,0.00,,2013-01-20 20:12:00,
2013-01-20 15:23:00,66.0,37.0,30.04,NNW,328,2.0,5.0,34,0.00,,,0.00,,2013-01-20 20:23:00,
2013-01-20 15:33:00,66.0,37.0,30.04,WSW,239,3.0,6.0,34,0.00,,,0.00,,2013-01-20 20:33:00,
2013-01-20 15:42:00,66.0,37.0,30.04,WSW,239,3.0,6.0,34,0.00,,,0.00,,2013-01-20 20:42:00,
2013-01-20 15:54:00,65.0,36.0,30.04,SSW,193,1.0,5.0,34,0.00,,,0.00,,2013-01-20 20:54:00,
2013-01-20 16:04:00,64.0,36.0,30.04,WSW,251,2.0,5.0,35,0.00,,,0.00,,2013-01-20 21:04:00,
2013-01-20 16:13:00,64.0,36.0,30.04,WSW,251,2.0,5.0,35,0.00,,,0.00,,2013-01-20 21:13:00,
2013-01-20 16:23:00,63.0,37.0,30.03,South,176,3.0,8.0,38,0.00,,,0.00,,2013-01-20 21:23:00,
2013-01-20 16:33:00,62.0,38.0,30.03,South,179,3.0,10.0,41,0.00,,,0.00,,2013-01-20 21:33:00,
2013-01-20 16:43:00,62.0,38.0,30.03,South,179,3.0,10.0,41,0.00,,,0.00,,2013-01-20 21:43:00,
2013-01-20 16:53:00,62.0,39.0,30.03,WSW,238,4.0,9.0,42,0.00,,,0.00,,2013-01-20 21:53:00,
2013-01-20 17:03:00,62.0,39.0,30.03,WSW,238,4.0,9.0,42,0.00,,,0.00,,2013-01-20 22:03:00,
2013-01-20 17:13:00,62.0,39.0,30.03,WSW,238,4.0,9.0,42,0.00,,,0.00,,2013-01-20 22:13:00,
2013-01-20 17:23:00,60.0,39.0,30.04,SSW,202,3.0,7.0,46,0.00,,,0.00,,2013-01-20 22:23:00,
2013-01-20 17:33:00,59.0,39.0,30.04,SSW,196,1.0,6.0,47,0.00,,,0.00,,2013-01-20 22:33:00,
2013-01-20 17:43:00,59.0,39.0,30.04,SSW,196,1.0,6.0,47,0.00,,,0.00,,2013-01-20 22:43:00,
2013-01-20 17:53:00,58.0,39.0,30.04,SSW,196,0.0,2.0,50,0.00,,,0.00,,2013-01-20 22:53:00,
2013-01-20 18:03:00,56.0,39.0,30.05,SSW,196,0.0,0.0,53,0.00,,,0.00,,2013-01-20 23:03:00,
2013-01-20 18:13:00,56.0,39.0,30.05,SSW,196,0.0,0.0,53,0.00,,,0.00,,2013-01-20 23:13:00,
2013-01-20 18:23:00,54.0,39.0,30.05,SSW,196,0.0,0.0,57,0.00,,,0.00,,2013-01-20 23:23:00,
2013-01-20 18:33:00,52.0,39.0,30.05,SSW,196,0.0,0.0,60,0.00,,,0.00,,2013-01-20 23:33:00,
2013-01-20 18:43:00,52.0,39.0,30.05,SSW,196,0.0,0.0,60,0.00,,,0.00,,2013-01-20 23:43:00,
2013-01-20 18:53:00,51.0,39.0,30.06,SSW,196,0.0,1.0,63,0.00,,,0.00,,2013-01-20 23:53:00,
2013-01-20 19:03:00,50.0,38.0,30.06,SSW,198,1.0,2.0,63,0.00,,,0.00,,2013-01-21 00:03:00,
2013-01-20 19:13:00,50.0,38.0,30.06,SSW,198,1.0,2.0,63,0.00,,,0.00,,2013-01-21 00:13:00,
2013-01-20 19:23:00,49.0,37.0,30.06,SSW,198,0.0,1.0,64,0.00,,,0.00,,2013-01-21 00:23:00,
2013-01-20 19:33:00,49.0,37.0,30.06,SSW,198,0.0,1.0,64,0.00,,,0.00,,2013-01-21 00:33:00,
2013-01-20 19:43:00,49.0,37.0,30.06,SSW,198,0.0,1.0,64,0.00,,,0.00,,2013-01-21 00:43:00,
2013-01-20 19:54:00,47.0,37.0,30.07,NE,40,0.0,3.0,68,0.00,,,0.00,,2013-01-21 00:54:00,
2013-01-20 20:03:00,49.0,35.0,30.07,NNW,345,1.0,3.0,58,0.00,,,0.00,,2013-01-21 01:03:00,
2013-01-20 20:13:00,49.0,35.0,30.07,NNW,345,1.0,3.0,58,0.00,,,0.00,,2013-01-21 01:13:00,
2013-01-20 20:23:00,49.0,34.0,30.07,NNW,345,0.0,2.0,57,0.00,,,0.00,,2013-01-21 01:23:00,
2013-01-20 20:33:00,48.0,34.0,30.08,NNW,342,0.0,2.0,59,0.00,,,0.00,,2013-01-21 01:33:00,
2013-01-20 20:43:00,48.0,34.0,30.08,NNW,342,0.0,2.0,59,0.00,,,0.00,,2013-01-21 01:43:00,
2013-01-20 20:53:00,48.0,34.0,30.08,NNW,342,0.0,2.0,59,0.00,,,0.00,,2013-01-21 01:53:00,
2013-01-20 21:03:00,45.0,34.0,30.08,NNW,342,0.0,0.0,64,0.00,,,0.00,,2013-01-21 02:03:00,
2013-01-20 21:12:00,45.0,34.0,30.08,NNW,342,0.0,0.0,64,0.00,,,0.00,,2013-01-21 02:12:00,
2013-01-20 21:23:00,45.0,34.0,30.08,NNW,342,0.0,0.0,66,0.00,,,0.00,,2013-01-21 02:23:00,
2013-01-20 21:33:00,44.0,33.0,30.09,NNW,342,0.0,2.0,66,0.00,,,0.00,,2013-01-21 02:33:00,
2013-01-20 21:43:00,44.0,33.0,30.09,NNW,342,0.0,2.0,66,0.00,,,0.00,,2013-01-21 02:43:00,
2013-01-20 21:53:00,43.0,35.0,30.09,NNW,342,0.0,2.0,72,0.00,,,0.00,,2013-01-21 02:53:00,
2013-01-20 22:03:00,42.0,34.0,30.09,NNW,342,0.0,0.0,72,0.00,,,0.00,,2013-01-21 03:03:00,
2013-01-20 22:13:00,42.0,34.0,30.09,NNW,342,0.0,0.0,72,0.00,,,0.00,,2013-01-21 03:13:00,
2013-01-20 22:23:00,41.0,33.0,30.09,NNW,342,0.0,0.0,74,0.00,,,0.00,,2013-01-21 03:23:00,
2013-01-20 22:33:00,41.0,33.0,30.09,NNW,342,0.0,0.0,74,0.00,,,0.00,,2013-01-21 03:33:00,
2013-01-20 22:43:00,41.0,33.0,30.09,NNW,342,0.0,0.0,74,0.00,,,0.00,,2013-01-21 03:43:00,
2013-01-20 22:54:00,40.0,32.0,30.09,NNW,342,0.0,0.0,72,0.00,,,0.00,,2013-01-21 03:54:00,
2013-01-20 23:03:00,40.0,33.0,30.09,NNW,342,0.0,0.0,76,0.00,,,0.00,,2013-01-21 04:03:00,
2013-01-20 23:13:00,40.0,33.0,30.09,NNW,342,0.0,0.0,76,0.00,,,0.00,,2013-01-21 04:13:00,
2013-01-20 23:23:00,39.0,33.0,30.09,NNW,342,0.0,1.0,78,0.00,,,0.00,,2013-01-21 04:23:00,
2013-01-20 23:33:00,39.0,33.0,30.09,NNW,342,0.0,1.0,78,0.00,,,0.00,,2013-01-21 04:33:00,
2013-01-20 23:43:00,39.0,33.0,30.09,NNW,342,0.0,1.0,78,0.00,,,0.00,,2013-01-21 04:43:00,
2013-01-20 23:53:00,39.0,33.0,30.09,NNW,342,0.0,1.0,78,0.00,,,0.00,,2013-01-21 04:53:00,